Time;durP1;ratioP1;P1;durP2;ratioP2;P2;SDS_P1;SDS_P2;PMS_P1;PMS_P2;Temp;Humidity;BMP_temperature;BMP_pressure;BME280_temperature;BME280_humidity;BME280_pressure;Samples;Min_cycle;Max_cycle;Signal;HPM_P1;HPM_P2
2022/06/20 00:00:00;;;;;;;5.13;0.80;;;13.40;99.90;;;;;;5065496;28;20043;-68
2022/06/20 00:02:26;;;;;;;8.50;1.48;;;13.30;99.90;;;;;;5067503;28;20048;-68
2022/06/20 00:04:54;;;;;;;6.55;1.15;;;13.30;99.90;;;;;;5065535;28;20048;-69
2022/06/20 00:07:20;;;;;;;5.40;1.05;;;13.30;99.90;;;;;;5070172;28;20067;-68
2022/06/20 00:09:46;;;;;;;7.63;1.10;;;13.30;99.90;;;;;;5050428;28;21114;-69
2022/06/20 00:12:17;;;;;;;4.90;1.05;;;13.20;99.90;;;;;;5084688;28;20040;-69
2022/06/20 00:14:43;;;;;;;5.80;1.00;;;13.20;99.90;;;;;;5084196;28;20124;-69
2022/06/20 00:17:11;;;;;;;6.60;1.20;;;13.20;99.90;;;;;;5071146;28;20119;-69
2022/06/20 00:19:36;;;;;;;5.68;1.50;;;13.10;99.90;;;;;;5068113;28;20054;-69
2022/06/20 00:22:02;;;;;;;6.35;1.27;;;13.00;99.90;;;;;;5083498;28;20040;-69
2022/06/20 00:24:29;;;;;;;3.35;0.80;;;12.90;99.90;;;;;;5070836;28;20442;-68
2022/06/20 00:26:56;;;;;;;5.57;1.15;;;12.80;99.90;;;;;;5065998;28;20043;-69
2022/06/20 00:29:22;;;;;;;6.72;2.33;;;12.80;99.90;;;;;;5069177;28;20070;-68
2022/06/20 00:31:47;;;;;;;5.15;0.98;;;12.70;99.90;;;;;;5080335;28;20036;-68
2022/06/20 00:34:13;;;;;;;5.57;0.82;;;12.70;99.90;;;;;;5071226;28;20032;-68
2022/06/20 00:36:39;;;;;;;4.60;0.75;;;12.60;99.90;;;;;;5086227;28;20032;-68
2022/06/20 00:39:05;;;;;;;5.47;1.02;;;12.60;99.90;;;;;;5068732;28;20043;-68
2022/06/20 00:41:33;;;;;;;5.72;1.10;;;12.60;99.90;;;;;;5082539;28;20786;-68
2022/06/20 00:43:59;;;;;;;5.80;1.08;;;12.60;99.90;;;;;;5082082;28;20089;-68
2022/06/20 00:46:39;;;;;;;10.63;1.40;;;12.60;99.90;;;;;;5069069;28;20037;-69
2022/06/20 00:49:20;;;;;;;3.00;0.80;;;12.60;99.90;;;;;;5084606;28;20421;-69
2022/06/20 00:51:54;;;;;;;7.88;2.55;;;12.60;99.90;;;;;;5083634;28;20048;-69
2022/06/20 00:54:40;;;;;;;3.63;0.75;;;12.70;99.90;;;;;;5087311;28;20040;-69
2022/06/20 00:57:39;;;;;;;6.13;1.60;;;12.70;99.90;;;;;;5083423;28;22100;-69
2022/06/20 01:00:15;;;;;;;5.60;1.13;;;12.80;99.90;;;;;;5066717;28;20155;-69
2022/06/20 01:02:49;;;;;;;6.00;1.13;;;12.80;99.90;;;;;;5068685;28;20052;-68
2022/06/20 01:05:30;;;;;;;7.60;1.30;;;12.90;99.90;;;;;;5086028;28;20045;-68
2022/06/20 01:08:21;;;;;;;5.68;1.25;;;12.90;99.90;;;;;;5065976;28;20169;-68
2022/06/20 01:10:54;;;;;;;5.75;1.35;;;12.90;99.90;;;;;;5067974;28;20133;-68
2022/06/20 01:13:22;;;;;;;8.65;2.08;;;12.90;99.90;;;;;;5084159;28;20040;-68
2022/06/20 01:15:51;;;;;;;6.85;1.45;;;12.90;99.90;;;;;;5086499;28;20031;-68
2022/06/20 01:18:25;;;;;;;7.15;2.00;;;13.00;99.90;;;;;;5070833;28;20032;-68
2022/06/20 01:20:53;;;;;;;5.10;1.13;;;13.00;99.90;;;;;;5086213;28;20105;-68
2022/06/20 01:23:36;;;;;;;6.05;1.77;;;13.10;99.90;;;;;;5084771;28;20031;-69
2022/06/20 01:26:08;;;;;;;6.70;1.35;;;13.10;99.90;;;;;;5081871;28;20048;-69
2022/06/20 01:28:37;;;;;;;5.25;1.40;;;13.00;99.90;;;;;;5071447;28;20048;-68
2022/06/20 01:31:04;;;;;;;7.03;1.58;;;13.00;99.90;;;;;;5078732;28;20056;-68
2022/06/20 01:33:31;;;;;;;7.75;0.98;;;13.00;99.90;;;;;;5083485;28;20085;-68
2022/06/20 01:38:44;;;;;;;5.53;1.58;;;12.90;99.90;;;;;;5065330;28;20928;-68
2022/06/20 01:43:58;;;;;;;6.60;1.30;;;12.80;99.90;;;;;;5082422;28;20048;-68
2022/06/20 01:46:27;;;;;;;6.78;1.42;;;12.70;99.90;;;;;;5085216;28;20683;-68
2022/06/20 01:48:56;;;;;;;4.35;1.48;;;12.70;99.90;;;;;;5082452;28;20036;-68
2022/06/20 01:51:28;;;;;;;6.80;1.45;;;12.60;99.90;;;;;;5072617;28;20031;-68
2022/06/20 01:53:56;;;;;;;6.63;1.38;;;12.60;99.90;;;;;;5084565;28;20033;-68
2022/06/20 01:56:25;;;;;;;7.85;1.77;;;12.60;99.90;;;;;;5068077;28;20048;-68
2022/06/20 01:58:58;;;;;;;4.10;1.10;;;12.60;99.90;;;;;;5068256;28;20186;-68
2022/06/20 02:01:26;;;;;;;5.95;1.40;;;12.60;99.90;;;;;;5065822;28;20055;-68
2022/06/20 02:03:51;;;;;;;5.50;1.70;;;12.60;99.90;;;;;;5083155;28;20044;-68
2022/06/20 02:06:18;;;;;;;5.55;1.67;;;12.60;99.90;;;;;;5082181;28;20039;-68
2022/06/20 02:08:50;;;;;;;6.45;1.70;;;12.60;99.90;;;;;;5085737;28;20078;-68
2022/06/20 02:11:32;;;;;;;6.28;1.52;;;12.70;99.90;;;;;;5065953;28;20122;-68
2022/06/20 02:14:03;;;;;;;6.55;1.65;;;12.60;99.90;;;;;;5085636;28;20074;-69
2022/06/20 02:16:32;;;;;;;7.82;1.70;;;12.60;99.90;;;;;;5085402;28;20051;-70
2022/06/20 02:19:04;;;;;;;5.72;1.15;;;12.60;99.90;;;;;;5083595;28;20043;-69
2022/06/20 02:21:31;;;;;;;5.75;1.15;;;12.60;99.90;;;;;;5072504;28;20359;-70
2022/06/20 02:24:03;;;;;;;6.07;1.77;;;12.60;99.90;;;;;;5067065;28;20478;-68
2022/06/20 02:26:30;;;;;;;5.45;1.48;;;12.70;99.90;;;;;;5083723;28;20079;-68
2022/06/20 02:29:06;;;;;;;6.32;1.83;;;12.60;99.90;;;;;;5065271;28;20040;-68
2022/06/20 02:31:32;;;;;;;5.25;1.35;;;12.60;99.90;;;;;;5065582;28;20051;-68
2022/06/20 02:33:59;;;;;;;8.15;1.83;;;12.60;99.90;;;;;;5066126;28;20036;-68
2022/06/20 02:36:24;;;;;;;12.05;1.95;;;12.60;99.90;;;;;;5064684;28;20047;-69
2022/06/20 02:38:51;;;;;;;8.13;1.80;;;12.50;99.90;;;;;;5066294;28;20043;-69
2022/06/20 02:41:21;;;;;;;6.90;1.60;;;12.50;99.90;;;;;;5065306;28;20047;-69
2022/06/20 02:43:53;;;;;;;5.63;1.23;;;12.50;99.90;;;;;;5064218;28;20043;-69
2022/06/20 02:46:23;;;;;;;5.43;1.45;;;12.40;99.90;;;;;;5065000;28;20495;-69
2022/06/20 02:48:52;;;;;;;6.55;2.25;;;12.40;99.90;;;;;;5064048;28;20040;-69
2022/06/20 02:51:25;;;;;;;6.50;1.60;;;12.30;99.90;;;;;;5067892;28;20059;-69
2022/06/20 02:54:01;;;;;;;6.32;1.70;;;12.30;99.90;;;;;;5082655;28;20501;-69
2022/06/20 02:56:30;;;;;;;6.88;1.60;;;12.20;99.90;;;;;;5083787;28;20032;-69
2022/06/20 02:59:05;;;;;;;7.78;1.85;;;12.20;99.90;;;;;;5083545;28;20036;-69
2022/06/20 03:01:45;;;;;;;6.35;1.70;;;12.10;99.90;;;;;;5087397;28;20052;-69
2022/06/20 03:04:12;;;;;;;6.25;1.38;;;12.10;99.90;;;;;;5063668;28;20048;-69
2022/06/20 03:06:42;;;;;;;6.70;1.63;;;12.10;99.90;;;;;;5067373;28;20040;-69
2022/06/20 03:09:12;;;;;;;5.72;1.10;;;12.00;99.90;;;;;;5066649;28;20040;-69
2022/06/20 03:11:39;;;;;;;6.03;1.35;;;12.10;99.90;;;;;;5083480;28;20433;-69
2022/06/20 03:14:10;;;;;;;6.53;1.48;;;12.10;99.90;;;;;;5085556;28;20491;-69
2022/06/20 03:16:39;;;;;;;8.38;1.75;;;12.00;99.90;;;;;;5081420;28;20123;-69
2022/06/20 03:19:09;;;;;;;7.75;2.03;;;12.00;99.90;;;;;;5068125;28;20040;-69
2022/06/20 03:21:38;;;;;;;5.28;1.33;;;12.00;99.90;;;;;;5081013;28;20052;-69
2022/06/20 03:24:06;;;;;;;7.05;1.75;;;12.00;99.90;;;;;;5082901;28;20397;-69
2022/06/20 03:26:32;;;;;;;10.52;2.13;;;12.00;99.90;;;;;;5061840;28;20050;-69
2022/06/20 03:28:58;;;;;;;7.65;1.58;;;12.00;99.90;;;;;;5083145;28;20068;-69
2022/06/20 03:31:24;;;;;;;5.20;1.38;;;12.00;99.90;;;;;;5060598;28;20082;-68
2022/06/20 03:33:50;;;;;;;8.30;1.70;;;12.00;99.90;;;;;;5081650;28;20459;-69
2022/06/20 03:36:19;;;;;;;7.25;1.63;;;12.00;99.90;;;;;;5063792;28;20075;-69
2022/06/20 03:38:46;;;;;;;7.80;1.70;;;12.00;99.90;;;;;;5066791;28;20067;-68
2022/06/20 03:41:15;;;;;;;5.68;1.42;;;12.00;99.90;;;;;;5081802;28;20386;-69
2022/06/20 03:43:43;;;;;;;5.35;1.48;;;12.00;99.90;;;;;;5061038;28;20041;-69
2022/06/20 03:46:20;;;;;;;3.85;1.58;;;12.00;99.90;;;;;;5087467;28;20043;-69
2022/06/20 03:49:09;;;;;;;5.70;1.48;;;12.00;99.90;;;;;;5068932;28;20040;-69
2022/06/20 03:51:45;;;;;;;10.07;1.60;;;12.10;99.90;;;;;;5085085;28;20055;-69
2022/06/20 03:54:18;;;;;;;8.68;1.85;;;12.00;99.90;;;;;;5073330;28;20054;-69
2022/06/20 03:56:53;;;;;;;4.68;0.90;;;12.00;99.90;;;;;;5088003;28;20467;-69
2022/06/20 03:59:45;;;;;;;2.85;1.00;;;11.90;99.90;;;;;;5067348;28;20060;-69
2022/06/20 04:02:34;;;;;;;5.13;0.98;;;11.80;99.90;;;;;;5080548;28;20054;-69
2022/06/20 04:05:30;;;;;;;3.30;1.10;;;11.90;99.90;;;;;;5083928;28;20048;-69
2022/06/20 04:10:57;;;;;;;3.40;1.30;;;11.80;99.90;;;;;;5083771;28;20491;-68
2022/06/20 04:11:18;;;;;;;5.28;1.23;;;12.50;99.90;;;;;;5070806;28;20047;-68
2022/06/20 04:14:07;;;;;;;7.13;1.10;;;13.00;99.90;;;;;;5066409;28;20542;-69
2022/06/20 04:16:39;;;;;;;5.78;1.20;;;13.00;99.90;;;;;;5065158;28;20035;-68
2022/06/20 04:19:14;;;;;;;4.32;1.00;;;12.90;99.90;;;;;;5090244;28;20050;-68
2022/06/20 04:21:46;;;;;;;9.43;1.73;;;13.00;99.90;;;;;;5054593;28;20036;-69
2022/06/20 04:24:47;;;;;;;4.70;1.20;;;13.00;99.90;;;;;;5081784;28;20071;-69
2022/06/20 04:27:27;;;;;;;2.42;0.80;;;13.10;99.90;;;;;;5073992;28;20052;-68
2022/06/20 04:29:58;;;;;;;5.03;1.83;;;13.30;99.90;;;;;;5085588;28;20085;-68
2022/06/20 04:32:33;;;;;;;8.50;1.20;;;13.50;99.90;;;;;;5086520;28;20036;-69
2022/06/20 04:35:37;;;;;;;3.47;1.40;;;14.10;99.90;;;;;;5068389;28;20048;-69
2022/06/20 04:38:29;;;;;;;6.78;1.52;;;15.40;99.90;;;;;;5064401;28;20039;-69
2022/06/20 04:41:05;;;;;;;6.63;1.27;;;17.30;99.90;;;;;;5086603;28;20036;-69
2022/06/20 04:43:40;;;;;;;3.05;1.05;;;18.30;99.90;;;;;;5070013;28;20040;-69
2022/06/20 04:46:19;;;;;;;5.28;1.20;;;19.50;99.90;;;;;;5066619;28;20048;-69
2022/06/20 04:48:47;;;;;;;5.50;0.70;;;20.70;99.90;;;;;;5070935;28;20101;-69
2022/06/20 04:51:17;;;;;;;5.90;1.08;;;21.80;99.90;;;;;;5067217;28;20086;-69
2022/06/20 04:53:44;;;;;;;6.85;1.88;;;22.70;99.90;;;;;;5082061;28;20052;-69
2022/06/20 04:56:13;;;;;;;4.88;0.90;;;23.40;99.90;;;;;;5086611;28;20414;-69
2022/06/20 04:58:47;;;;;;;8.20;1.27;;;23.10;99.90;;;;;;5068009;28;20557;-69
2022/06/20 05:01:14;;;;;;;3.35;0.98;;;22.90;99.90;;;;;;5081469;28;20037;-69
2022/06/20 05:03:55;;;;;;;6.97;1.30;;;23.30;99.90;;;;;;5082907;28;20036;-69
2022/06/20 05:06:27;;;;;;;5.05;1.27;;;24.10;99.90;;;;;;5067593;28;20071;-70
2022/06/20 05:08:59;;;;;;;4.35;1.10;;;25.10;99.90;;;;;;5084671;28;20606;-69
2022/06/20 05:11:28;;;;;;;4.63;0.90;;;25.80;99.90;;;;;;5083978;28;20079;-69
2022/06/20 05:14:12;;;;;;;4.55;0.90;;;26.50;99.90;;;;;;5066674;28;20078;-69
2022/06/20 05:16:45;;;;;;;4.50;0.93;;;27.00;99.90;;;;;;5082327;28;20064;-70
2022/06/20 05:19:36;;;;;;;4.07;1.08;;;27.30;99.40;;;;;;5084854;28;20036;-69
2022/06/20 05:22:09;;;;;;;3.42;0.73;;;27.80;98.00;;;;;;5067576;28;20072;-69
2022/06/20 05:24:39;;;;;;;12.63;1.40;;;27.20;98.70;;;;;;5070008;28;20051;-70
2022/06/20 05:27:18;;;;;;;10.38;1.40;;;26.00;98.90;;;;;;5085148;28;20422;-69
2022/06/20 05:29:45;;;;;;;6.43;1.42;;;25.20;99.80;;;;;;5084303;28;20044;-70
2022/06/20 05:32:21;;;;;;;3.00;0.98;;;24.50;99.90;;;;;;5083069;28;20044;-69
2022/06/20 05:34:58;;;;;;;7.07;1.25;;;23.90;99.90;;;;;;5084503;28;20110;-69
2022/06/20 05:37:47;;;;;;;5.60;1.23;;;23.70;99.90;;;;;;5084976;28;20044;-69
2022/06/20 05:40:23;;;;;;;6.15;1.35;;;23.30;99.90;;;;;;5082770;28;20024;-69
2022/06/20 05:42:49;;;;;;;6.22;1.27;;;22.90;99.90;;;;;;5086239;28;20486;-69
2022/06/20 05:45:18;;;;;;;5.95;2.13;;;22.60;99.90;;;;;;5065505;28;20044;-69
2022/06/20 05:47:49;;;;;;;8.32;1.88;;;22.30;99.90;;;;;;5082853;28;20036;-69
2022/06/20 05:50:14;;;;;;;7.57;1.83;;;22.20;99.90;;;;;;5067396;28;20033;-69
2022/06/20 05:52:43;;;;;;;7.40;2.17;;;22.10;99.90;;;;;;5085679;28;20607;-69
2022/06/20 05:55:17;;;;;;;6.43;2.00;;;22.20;99.90;;;;;;5064010;28;20123;-69
2022/06/20 05:57:47;;;;;;;8.70;1.83;;;22.10;99.90;;;;;;5079753;28;20042;-68
2022/06/20 06:00:18;;;;;;;4.57;1.83;;;22.00;99.90;;;;;;5052246;28;20105;-68
2022/06/20 06:03:13;;;;;;;5.22;1.50;;;22.20;99.90;;;;;;5081344;28;20131;-68
2022/06/20 06:05:42;;;;;;;9.63;2.90;;;22.40;99.90;;;;;;5080667;28;20040;-68
2022/06/20 06:08:30;;;;;;;7.05;1.92;;;22.30;99.90;;;;;;5080956;28;20104;-65
2022/06/20 06:11:15;;;;;;;5.82;1.70;;;22.30;99.90;;;;;;5060459;28;20044;-67
2022/06/20 06:13:46;;;;;;;8.40;2.20;;;22.10;99.90;;;;;;5080948;28;20063;-67
2022/06/20 06:19:32;;;;;;;6.47;1.95;;;22.20;99.90;;;;;;5078593;28;20122;-67
2022/06/20 06:22:03;;;;;;;7.60;2.50;;;22.30;99.90;;;;;;5083551;28;20074;-67
2022/06/20 06:24:32;;;;;;;8.02;2.25;;;22.40;99.90;;;;;;5065148;28;20063;-67
2022/06/20 06:27:01;;;;;;;6.90;2.10;;;22.40;99.90;;;;;;5068126;28;20567;-67
2022/06/20 06:29:51;;;;;;;8.85;2.13;;;22.20;99.90;;;;;;5064367;28;20051;-66
2022/06/20 06:32:38;;;;;;;7.07;1.98;;;21.70;99.90;;;;;;5050455;28;20051;-66
2022/06/20 06:35:15;;;;;;;11.20;3.15;;;21.10;99.90;;;;;;5062411;28;20107;-67
2022/06/20 06:37:50;;;;;;;7.60;2.10;;;20.60;99.90;;;;;;5076844;28;20154;-67
2022/06/20 06:40:34;;;;;;;6.78;1.98;;;20.40;99.90;;;;;;5065340;28;20040;-67
2022/06/20 06:43:06;;;;;;;9.07;2.70;;;20.50;99.90;;;;;;5080473;28;20051;-67
2022/06/20 06:45:33;;;;;;;8.00;2.33;;;20.40;99.90;;;;;;5066617;28;20089;-67
2022/06/20 06:48:09;;;;;;;5.90;2.03;;;20.70;99.90;;;;;;5065311;28;20041;-67
2022/06/20 06:50:40;;;;;;;6.95;1.88;;;20.90;99.90;;;;;;5043731;28;20048;-67
2022/06/20 06:53:58;;;;;;;10.68;2.10;;;21.00;99.90;;;;;;5079814;28;20040;-67
2022/06/20 06:56:54;;;;;;;7.95;1.80;;;21.10;99.90;;;;;;5018791;28;20038;-67
2022/06/20 06:59:43;;;;;;;7.57;1.75;;;20.90;99.90;;;;;;5064059;28;20113;-67
2022/06/20 07:02:23;;;;;;;5.72;2.33;;;21.10;99.90;;;;;;5081359;28;20039;-67
2022/06/20 07:05:00;;;;;;;7.22;2.15;;;21.20;99.90;;;;;;5080237;28;20043;-67
2022/06/20 07:07:31;;;;;;;7.13;1.88;;;21.00;99.90;;;;;;5063608;28;20078;-67
2022/06/20 07:09:57;;;;;;;8.48;2.05;;;20.80;99.90;;;;;;5064568;28;20389;-67
2022/06/20 07:12:49;;;;;;;8.13;2.15;;;20.50;99.90;;;;;;5084992;28;20130;-66
2022/06/20 07:15:23;;;;;;;6.45;1.67;;;20.30;99.90;;;;;;5078886;28;20045;-66
2022/06/20 07:17:59;;;;;;;7.18;1.98;;;20.30;99.90;;;;;;5080648;28;20035;-66
2022/06/20 07:20:35;;;;;;;8.20;2.00;;;20.20;99.90;;;;;;5081795;28;20039;-66
2022/06/20 07:23:05;;;;;;;7.60;2.10;;;20.00;99.90;;;;;;5079914;28;20044;-67
2022/06/20 07:25:37;;;;;;;9.13;1.77;;;20.00;99.90;;;;;;5079856;28;20063;-67
2022/06/20 07:28:06;;;;;;;6.32;2.05;;;20.10;99.90;;;;;;5066109;28;20058;-67
2022/06/20 07:30:42;;;;;;;5.28;1.58;;;19.90;99.90;;;;;;5063443;28;20064;-67
2022/06/20 07:33:20;;;;;;;6.40;1.45;;;19.90;99.90;;;;;;5065047;28;20051;-67
2022/06/20 07:35:51;;;;;;;5.72;1.35;;;20.30;99.90;;;;;;5082723;28;20059;-67
2022/06/20 07:38:34;;;;;;;5.43;1.90;;;20.80;99.90;;;;;;5064658;28;20048;-67
2022/06/20 07:41:06;;;;;;;4.45;1.58;;;21.20;99.90;;;;;;5063223;28;20047;-67
2022/06/20 07:43:35;;;;;;;4.32;1.58;;;21.60;99.90;;;;;;5063592;28;20059;-67
2022/06/20 07:46:16;;;;;;;5.07;1.67;;;21.50;99.90;;;;;;5078497;28;20043;-66
2022/06/20 07:48:45;;;;;;;6.40;1.98;;;21.50;99.90;;;;;;5082403;28;20104;-66
2022/06/20 07:51:13;;;;;;;7.82;1.77;;;21.70;99.90;;;;;;5078653;28;20047;-66
2022/06/20 07:54:03;;;;;;;7.32;1.80;;;21.60;99.90;;;;;;5083089;28;20071;-67
2022/06/20 07:56:50;;;;;;;8.75;1.80;;;21.30;99.90;;;;;;5043590;28;20051;-67
2022/06/20 07:59:21;;;;;;;9.70;1.98;;;21.10;99.90;;;;;;5062212;28;20089;-67
2022/06/20 08:02:07;;;;;;;7.38;2.03;;;20.80;99.90;;;;;;5075179;28;20718;-66
2022/06/20 08:04:35;;;;;;;8.20;2.13;;;21.00;99.90;;;;;;5051612;28;20171;-66
2022/06/20 08:07:16;;;;;;;6.35;1.80;;;21.20;99.90;;;;;;5067879;28;20481;-67
2022/06/20 08:09:51;;;;;;;13.73;2.88;;;21.40;99.90;;;;;;5079397;28;20047;-67
2022/06/20 08:12:27;;;;;;;6.68;1.58;;;21.10;99.90;;;;;;5059748;28;20386;-67
2022/06/20 08:15:06;;;;;;;7.50;1.60;;;20.90;99.90;;;;;;5062611;28;20586;-67
2022/06/20 08:17:32;;;;;;;6.40;2.00;;;21.10;99.90;;;;;;5077882;28;20032;-67
2022/06/20 08:19:59;;;;;;;6.65;1.65;;;21.30;99.90;;;;;;5082981;28;20112;-67
2022/06/20 08:22:40;;;;;;;6.32;1.98;;;21.30;99.90;;;;;;5062427;28;20040;-67
2022/06/20 08:25:12;;;;;;;7.38;1.70;;;21.30;99.90;;;;;;5083031;28;20134;-67
2022/06/20 08:27:48;;;;;;;5.35;1.63;;;21.70;99.90;;;;;;5062467;28;20060;-66
2022/06/20 08:30:22;;;;;;;10.23;1.60;;;22.20;99.90;;;;;;5081817;28;20064;-66
2022/06/20 08:33:13;;;;;;;7.97;1.70;;;22.50;99.90;;;;;;5064821;28;20037;-66
2022/06/20 08:35:58;;;;;;;6.93;1.40;;;22.40;99.90;;;;;;5067215;28;20059;-67
2022/06/20 08:38:29;;;;;;;4.97;1.50;;;22.00;99.90;;;;;;5083245;28;20556;-67
2022/06/20 08:41:05;;;;;;;9.45;1.75;;;21.50;99.90;;;;;;5071309;28;20306;-67
2022/06/20 08:43:36;;;;;;;10.32;2.00;;;21.60;99.90;;;;;;5080409;28;20098;-67
2022/06/20 08:46:20;;;;;;;4.38;1.10;;;21.60;99.90;;;;;;5066048;28;20040;-67
2022/06/20 08:49:23;;;;;;;6.35;1.08;;;21.70;99.90;;;;;;5080370;28;20123;-67
2022/06/20 08:52:12;;;;;;;2.72;0.77;;;22.00;99.90;;;;;;5077993;28;20040;-67
2022/06/20 08:54:57;;;;;;;3.97;0.70;;;22.40;99.90;;;;;;5021910;28;20077;-67
2022/06/20 08:57:50;;;;;;;1.70;0.50;;;22.70;99.90;;;;;;5066199;28;20068;-67
2022/06/20 09:00:30;;;;;;;1.52;0.50;;;23.00;99.90;;;;;;5064892;28;20078;-67
2022/06/20 09:03:21;;;;;;;2.67;0.70;;;23.30;99.90;;;;;;5085466;28;20052;-66
2022/06/20 09:06:07;;;;;;;4.68;0.70;;;23.50;99.60;;;;;;5083916;28;20068;-66
2022/06/20 09:08:52;;;;;;;4.47;0.70;;;23.70;99.10;;;;;;5065685;28;20035;-67
2022/06/20 09:11:46;;;;;;;5.50;0.90;;;23.60;98.70;;;;;;5065447;28;20041;-67
2022/06/20 09:14:35;;;;;;;1.83;0.60;;;23.30;98.50;;;;;;5081187;28;20052;-66
2022/06/20 09:17:36;;;;;;;4.40;0.80;;;23.10;98.60;;;;;;5064324;28;20517;-66
2022/06/20 09:20:24;;;;;;;4.45;1.55;;;22.60;99.70;;;;;;5083470;28;20068;-66
2022/06/20 09:23:06;;;;;;;4.95;0.68;;;22.10;98.80;;;;;;5066128;28;20168;-66
2022/06/20 09:25:43;;;;;;;2.13;1.17;;;21.80;99.60;;;;;;5064070;28;20060;-66
2022/06/20 09:28:45;;;;;;;4.50;2.10;;;21.80;99.90;;;;;;5052706;28;20055;-66
2022/06/20 09:31:42;;;;;;;6.93;0.90;;;21.70;99.90;;;;;;5083171;28;20391;-66
2022/06/20 09:34:30;;;;;;;3.42;0.88;;;21.60;99.90;;;;;;5051131;28;20093;-66
2022/06/20 09:37:27;;;;;;;3.70;0.68;;;21.50;99.90;;;;;;5063744;28;20127;-66
2022/06/20 09:40:25;;;;;;;6.13;1.05;;;21.50;99.90;;;;;;5064826;28;20044;-66
2022/06/20 09:43:29;;;;;;;2.85;0.70;;;21.80;99.90;;;;;;5063810;28;20777;-66
2022/06/20 09:45:58;;;;;;;6.65;0.95;;;21.90;99.90;;;;;;5041368;28;20059;-66
2022/06/20 09:48:41;;;;;;;7.43;1.02;;;21.90;99.90;;;;;;5078815;28;20502;-66
2022/06/20 09:51:19;;;;;;;4.72;0.85;;;21.90;99.90;;;;;;5081004;28;20055;-66
2022/06/20 09:54:10;;;;;;;3.65;1.05;;;21.70;99.90;;;;;;5080732;28;20044;-66
2022/06/20 09:57:02;;;;;;;3.88;0.80;;;21.60;99.90;;;;;;5081946;28;21360;-66
2022/06/20 09:59:55;;;;;;;5.50;0.95;;;21.30;99.90;;;;;;5065245;28;20036;-66
2022/06/20 10:02:49;;;;;;;3.80;0.80;;;21.20;99.90;;;;;;5084034;28;20107;-66
2022/06/20 10:05:20;;;;;;;6.90;1.25;;;21.20;99.90;;;;;;5082787;28;20036;-66
2022/06/20 10:07:53;;;;;;;5.63;1.10;;;21.50;99.90;;;;;;5066888;28;20039;-66
2022/06/20 10:10:27;;;;;;;6.40;0.88;;;22.00;99.90;;;;;;5081364;28;20098;-66
2022/06/20 10:13:14;;;;;;;4.40;1.47;;;22.30;99.90;;;;;;5063704;28;20048;-66
2022/06/20 10:15:50;;;;;;;4.50;0.90;;;22.70;99.90;;;;;;5080519;28;20088;-66
2022/06/20 10:18:42;;;;;;;4.78;1.10;;;22.80;99.90;;;;;;5079499;28;20044;-66
2022/06/20 10:21:17;;;;;;;2.25;0.60;;;22.50;99.90;;;;;;5079277;28;20048;-66
2022/06/20 10:24:25;;;;;;;6.97;1.23;;;22.30;99.90;;;;;;5082684;28;20489;-66
2022/06/20 10:26:59;;;;;;;5.13;1.02;;;22.00;99.90;;;;;;5063861;28;20044;-66
2022/06/20 10:29:55;;;;;;;6.83;1.30;;;21.80;99.90;;;;;;5057880;28;20074;-66
2022/06/20 10:32:28;;;;;;;5.63;1.38;;;21.60;99.90;;;;;;5064754;28;20429;-66
2022/06/20 10:35:14;;;;;;;6.68;1.00;;;21.60;99.90;;;;;;5082725;28;20035;-66
2022/06/20 10:37:46;;;;;;;3.78;1.13;;;21.90;99.90;;;;;;5082863;28;20088;-66
2022/06/20 10:40:26;;;;;;;6.95;2.38;;;22.30;99.90;;;;;;5069687;28;20048;-66
2022/06/20 10:43:29;;;;;;;3.30;0.80;;;22.50;99.90;;;;;;5069374;28;20044;-66
2022/06/20 10:46:20;;;;;;;4.65;0.70;;;22.20;99.90;;;;;;5065033;28;20044;-66
2022/06/20 10:49:06;;;;;;;2.55;0.60;;;21.90;99.80;;;;;;5072417;28;20047;-66
2022/06/20 10:52:32;;;;;;;4.43;1.00;;;21.60;99.90;;;;;;5084174;28;20043;-66
2022/06/20 10:55:35;;;;;;;3.78;0.70;;;21.20;99.90;;;;;;4993310;28;20554;-67
2022/06/20 10:58:35;;;;;;;3.10;0.75;;;20.90;99.90;;;;;;4985916;28;20041;-66
2022/06/20 11:04:39;;;;;;;3.10;0.68;;;21.80;99.90;;;;;;5083040;28;20119;-66
2022/06/20 11:07:22;;;;;;;3.47;1.02;;;22.20;99.90;;;;;;5078083;28;20472;-66
2022/06/20 11:09:59;;;;;;;2.67;1.40;;;22.50;99.90;;;;;;5082348;28;20032;-65
2022/06/20 11:12:45;;;;;;;4.00;0.90;;;22.50;99.00;;;;;;5066545;28;20565;-66
2022/06/20 11:15:32;;;;;;;3.47;1.05;;;22.30;99.40;;;;;;5037494;28;20050;-66
2022/06/20 11:18:11;;;;;;;4.20;0.95;;;22.40;99.90;;;;;;5044599;28;20051;-66
2022/06/20 11:20:58;;;;;;;4.15;1.27;;;22.70;99.90;;;;;;5083511;28;20699;-66
2022/06/20 11:24:06;;;;;;;7.35;1.10;;;22.70;99.90;;;;;;5062895;28;20044;-66
2022/06/20 11:26:47;;;;;;;5.22;1.13;;;22.60;99.80;;;;;;5037972;28;20070;-66
2022/06/20 11:29:45;;;;;;;2.83;0.80;;;22.80;99.90;;;;;;5082650;28;20067;-66
2022/06/20 11:32:30;;;;;;;3.97;1.10;;;22.70;98.60;;;;;;5074394;28;20056;-66
2022/06/20 11:35:13;;;;;;;4.95;1.17;;;22.80;99.60;;;;;;5066143;28;20047;-66
2022/06/20 11:37:45;;;;;;;5.53;0.95;;;22.90;99.10;;;;;;5058578;28;20048;-66
2022/06/20 11:40:32;;;;;;;4.93;1.00;;;23.00;99.80;;;;;;5062638;28;20040;-66
2022/06/20 11:43:08;;;;;;;3.75;1.10;;;23.10;99.30;;;;;;5078385;28;20642;-66
2022/06/20 11:46:05;;;;;;;4.20;0.98;;;23.40;98.70;;;;;;5079114;28;20051;-66
2022/06/20 11:49:36;;;;;;;3.97;1.05;;;23.50;98.90;;;;;;5062703;28;20439;-66
2022/06/20 11:52:16;;;;;;;4.03;1.00;;;23.50;97.80;;;;;;5020104;28;20052;-66
2022/06/20 11:54:59;;;;;;;5.30;1.10;;;23.10;98.60;;;;;;5061565;28;20050;-66
2022/06/20 11:57:40;;;;;;;7.28;1.10;;;22.90;98.80;;;;;;5074055;28;20421;-66
2022/06/20 12:00:20;;;;;;;3.83;1.20;;;22.70;99.60;;;;;;5079779;28;20959;-66
2022/06/20 12:02:56;;;;;;;5.78;1.98;;;22.50;99.90;;;;;;5047924;28;20138;-66
2022/06/20 12:06:00;;;;;;;4.40;1.45;;;22.50;99.90;;;;;;5065039;28;20040;-66
2022/06/20 12:08:38;;;;;;;4.65;0.80;;;22.40;99.90;;;;;;5075358;28;20048;-66
2022/06/20 12:11:30;;;;;;;3.30;1.05;;;22.40;98.50;;;;;;5086897;28;20043;-66
2022/06/20 12:14:20;;;;;;;4.50;0.85;;;22.50;99.70;;;;;;5085040;28;20044;-66
2022/06/20 12:17:00;;;;;;;4.45;0.85;;;22.50;99.70;;;;;;5086936;28;20036;-66
2022/06/20 12:25:48;;;;;;;3.05;0.80;;;22.50;99.90;;;;;;5064084;28;20422;-66
2022/06/20 12:28:18;;;;;;;6.13;1.02;;;22.50;99.90;;;;;;5082670;28;20416;-66
2022/06/20 12:30:58;;;;;;;4.25;0.70;;;22.40;99.10;;;;;;5089014;28;20126;-66
2022/06/20 12:33:25;;;;;;;2.78;0.68;;;22.50;99.50;;;;;;5085044;28;20086;-66
2022/06/20 12:35:55;;;;;;;3.60;0.75;;;22.30;99.90;;;;;;5082518;28;20071;-66
2022/06/20 12:38:45;;;;;;;3.47;0.93;;;22.00;99.90;;;;;;5085299;28;20509;-66
2022/06/20 12:41:18;;;;;;;2.33;0.70;;;21.70;99.90;;;;;;5084018;28;20462;-66
2022/06/20 12:43:49;;;;;;;7.88;1.02;;;21.40;99.90;;;;;;5070039;28;20040;-66
2022/06/20 12:46:38;;;;;;;3.30;0.90;;;21.40;99.90;;;;;;5084461;28;20117;-66
2022/06/20 12:49:29;;;;;;;3.53;0.82;;;21.50;99.90;;;;;;5068301;28;20059;-66
2022/06/20 12:52:10;;;;;;;4.43;1.10;;;21.60;99.90;;;;;;5085777;28;20044;-66
2022/06/20 12:54:57;;;;;;;6.95;1.15;;;21.60;99.90;;;;;;5084605;28;20175;-66
2022/06/20 12:57:32;;;;;;;8.88;0.93;;;21.80;99.90;;;;;;5049384;28;20039;-66
2022/06/20 13:00:30;;;;;;;5.78;0.98;;;21.90;99.90;;;;;;5081198;28;20075;-66
2022/06/20 13:03:11;;;;;;;4.35;1.23;;;22.00;99.60;;;;;;5086926;28;20500;-66
2022/06/20 13:05:58;;;;;;;6.53;1.00;;;21.90;99.90;;;;;;5085825;28;20142;-66
2022/06/20 13:09:06;;;;;;;3.10;0.70;;;21.80;99.80;;;;;;5064601;28;20048;-66
2022/06/20 13:11:53;;;;;;;4.53;0.80;;;21.90;99.90;;;;;;5085258;28;20042;-66
2022/06/20 13:14:31;;;;;;;4.30;1.30;;;22.00;99.90;;;;;;5054843;28;20071;-66
2022/06/20 13:17:10;;;;;;;9.32;0.98;;;21.80;99.90;;;;;;5067586;28;20052;-66
2022/06/20 13:20:12;;;;;;;4.55;0.82;;;21.60;99.90;;;;;;5084093;28;20043;-66
2022/06/20 13:22:53;;;;;;;5.15;0.90;;;21.70;99.90;;;;;;5085249;28;20036;-66
2022/06/20 13:25:41;;;;;;;4.53;0.55;;;21.60;99.90;;;;;;5065992;28;20068;-66
2022/06/20 13:28:16;;;;;;;5.18;0.88;;;21.40;99.90;;;;;;5065280;28;20032;-66
2022/06/20 13:31:00;;;;;;;4.10;0.82;;;21.20;99.90;;;;;;5080899;28;20089;-66
2022/06/20 13:33:53;;;;;;;3.85;1.13;;;21.30;99.90;;;;;;5066492;28;20051;-66
2022/06/20 13:36:43;;;;;;;3.53;0.80;;;21.30;99.90;;;;;;5081009;28;20505;-66
2022/06/20 13:39:37;;;;;;;5.22;0.80;;;21.20;99.90;;;;;;5082946;28;20044;-66
2022/06/20 13:42:16;;;;;;;2.83;0.95;;;21.10;99.90;;;;;;5065595;28;20051;-66
2022/06/20 13:44:59;;;;;;;4.30;0.70;;;21.10;99.90;;;;;;5082807;28;20089;-66
2022/06/20 13:47:47;;;;;;;2.20;0.77;;;20.90;99.90;;;;;;5086845;28;20065;-66
2022/06/20 13:50:29;;;;;;;4.85;1.00;;;20.70;99.90;;;;;;5021356;28;20480;-66
2022/06/20 13:53:09;;;;;;;6.70;0.73;;;20.50;99.90;;;;;;5082891;28;20051;-66
2022/06/20 13:56:02;;;;;;;4.57;0.90;;;20.50;99.90;;;;;;5085653;28;20040;-66
2022/06/20 13:58:53;;;;;;;5.70;0.95;;;20.40;99.90;;;;;;5086831;28;20037;-66
2022/06/20 14:01:20;;;;;;;7.80;1.15;;;20.50;99.90;;;;;;5066095;28;20048;-66